createdAt,value
2022-08-05T00:00:23.182Z,23.28
2022-08-05T00:02:52.477Z,23.25
2022-08-05T00:06:02.583Z,23.26
2022-08-05T00:08:32.769Z,23.21
2022-08-05T00:11:00.915Z,23.16
2022-08-05T00:13:39.620Z,23.11
2022-08-05T00:16:14.505Z,23.06
2022-08-05T00:18:48.223Z,23.03
2022-08-05T00:21:17.576Z,22.98
2022-08-05T00:23:53.649Z,22.97
2022-08-05T00:26:35.491Z,22.95
2022-08-05T00:29:02.721Z,22.94
2022-08-05T00:31:54.085Z,22.94
2022-08-05T00:34:56.204Z,22.89
2022-08-05T00:37:11.128Z,22.87
2022-08-05T00:39:44.572Z,22.87
2022-08-05T00:42:38.523Z,22.84
2022-08-05T00:45:11.625Z,22.79
2022-08-05T00:47:57.229Z,22.77
2022-08-05T00:50:29.362Z,22.73
2022-08-05T00:52:56.591Z,22.70
2022-08-05T00:55:34.172Z,22.67
2022-08-05T00:58:12.014Z,22.65
2022-08-05T01:00:40.468Z,22.61
2022-08-05T01:03:15.000Z,22.60
2022-08-05T01:05:54.797Z,22.61
2022-08-05T01:08:30.676Z,22.59
2022-08-05T01:11:22.451Z,22.56
2022-08-05T01:14:02.779Z,22.52
2022-08-05T01:16:44.225Z,22.51
2022-08-05T01:19:56.854Z,22.50
2022-08-05T01:22:41.873Z,22.46
2022-08-05T01:25:40.959Z,22.41
2022-08-05T01:28:23.891Z,22.36
2022-08-05T01:30:57.243Z,22.31
2022-08-05T01:33:35.460Z,22.31
2022-08-05T01:36:13.061Z,22.28
2022-08-05T01:38:48.487Z,22.21
2022-08-05T01:41:22.072Z,22.18
2022-08-05T01:43:51.112Z,22.13
2022-08-05T01:46:42.849Z,22.12
2022-08-05T01:49:23.789Z,22.14
2022-08-05T01:52:01.643Z,22.16
2022-08-05T01:54:58.431Z,22.17
2022-08-05T01:58:12.867Z,22.16
2022-08-05T02:00:19.166Z,22.11
2022-08-05T02:02:55.423Z,22.08
2022-08-05T02:05:29.220Z,22.07
2022-08-05T02:08:01.435Z,22.02
2022-08-05T02:10:37.937Z,21.95
2022-08-05T02:13:28.736Z,21.90
2022-08-05T02:16:24.255Z,21.82
2022-08-05T02:19:47.283Z,21.73
2022-08-05T02:22:26.535Z,21.67
2022-08-05T02:25:12.712Z,21.64
2022-08-05T02:27:59.319Z,21.62
2022-08-05T02:30:34.623Z,21.59
2022-08-05T02:33:03.559Z,21.56
2022-08-05T02:35:37.728Z,21.58
2022-08-05T02:38:19.540Z,21.58
2022-08-05T02:40:54.477Z,21.59
2022-08-05T02:43:24.814Z,21.59
2022-08-05T02:45:53.992Z,21.57
2022-08-05T02:48:29.516Z,21.59
2022-08-05T02:51:06.730Z,21.58
2022-08-05T02:53:40.470Z,21.58
2022-08-05T02:56:16.044Z,21.55
2022-08-05T02:58:51.209Z,21.48
2022-08-05T03:01:25.511Z,21.40
2022-08-05T03:04:02.733Z,21.32
2022-08-05T03:06:54.923Z,21.28
2022-08-05T03:09:27.213Z,21.30
2022-08-05T03:12:05.920Z,21.29
2022-08-05T03:14:33.154Z,21.25
2022-08-05T03:17:00.849Z,21.13
2022-08-05T03:19:33.793Z,21.02
2022-08-05T03:22:01.573Z,21.01
2022-08-05T03:24:30.958Z,21.02
2022-08-05T03:26:59.599Z,21.04
2022-08-05T03:29:45.551Z,21.06
2022-08-05T03:32:15.888Z,20.97
2022-08-05T03:34:50.560Z,20.98
2022-08-05T03:37:22.795Z,20.98
2022-08-05T03:39:58.927Z,20.97
2022-08-05T03:42:29.062Z,20.99
2022-08-05T03:45:01.498Z,21.02
2022-08-05T03:47:30.318Z,21.02
2022-08-05T03:49:58.196Z,21.05
2022-08-05T03:52:37.708Z,21.09
2022-08-05T03:56:05.119Z,21.09
2022-08-05T03:58:27.197Z,21.14
2022-08-05T04:01:00.361Z,21.18
2022-08-05T04:03:29.528Z,21.23
2022-08-05T04:05:59.164Z,21.27
2022-08-05T04:08:36.820Z,21.33
2022-08-05T04:11:08.687Z,21.38
2022-08-05T04:13:51.222Z,21.44
2022-08-05T04:16:25.359Z,21.48
2022-08-05T04:19:00.324Z,21.53
2022-08-05T04:22:09.205Z,21.55
2022-08-05T04:24:19.653Z,21.62
2022-08-05T04:26:50.480Z,21.71
2022-08-05T04:29:17.674Z,21.79
2022-08-05T04:31:45.230Z,21.90
2022-08-05T04:34:24.484Z,21.92
2022-08-05T04:37:03.123Z,21.93
2022-08-05T04:39:31.293Z,21.93
2022-08-05T04:42:00.277Z,21.92
2022-08-05T04:44:30.929Z,21.92
2022-08-05T04:46:59.544Z,21.99
2022-08-05T04:49:38.619Z,22.09
2022-08-05T04:52:15.893Z,22.14
2022-08-05T04:54:42.910Z,22.30
2022-08-05T04:57:10.593Z,22.39
2022-08-05T04:59:38.994Z,22.52
2022-08-05T05:02:41.330Z,22.55
2022-08-05T05:05:02.365Z,22.50
2022-08-05T05:07:32.291Z,22.61
2022-08-05T05:10:02.314Z,22.73
2022-08-05T05:12:30.296Z,22.85
2022-08-05T05:14:57.419Z,22.98
2022-08-05T05:17:55.547Z,23.11
2022-08-05T05:20:14.047Z,23.18
2022-08-05T05:22:43.941Z,23.25
2022-08-05T05:25:16.374Z,23.35
2022-08-05T05:27:53.795Z,23.49
2022-08-05T05:30:30.737Z,23.64
2022-08-05T05:33:16.302Z,23.77
2022-08-05T05:35:48.340Z,23.92
2022-08-05T05:38:22.715Z,24.02
2022-08-05T05:40:56.905Z,24.12
2022-08-05T05:43:56.420Z,24.25
2022-08-05T05:46:16.325Z,24.32
2022-08-05T05:48:48.138Z,24.44
2022-08-05T05:51:28.062Z,24.48
2022-08-05T05:53:59.747Z,24.45
2022-08-05T05:56:34.447Z,24.47
2022-08-05T05:59:06.018Z,24.52
2022-08-05T06:01:39.763Z,24.60
2022-08-05T06:04:12.966Z,24.71
2022-08-05T06:06:46.603Z,24.84
2022-08-05T06:09:25.899Z,25.00
2022-08-05T06:12:04.030Z,25.17
2022-08-05T06:14:32.386Z,25.32
2022-08-05T06:17:02.210Z,25.38
2022-08-05T06:19:57.220Z,25.48
2022-08-05T06:22:29.829Z,25.59
2022-08-05T06:24:58.008Z,25.72
2022-08-05T06:28:11.314Z,25.79
2022-08-05T06:30:19.889Z,25.89
2022-08-05T06:32:50.815Z,25.97
2022-08-05T06:36:03.963Z,26.08
2022-08-05T06:38:10.075Z,26.09
2022-08-05T06:40:44.621Z,26.20
2022-08-05T06:43:58.763Z,26.31
2022-08-05T06:46:03.723Z,26.38
2022-08-05T06:48:53.518Z,26.37
2022-08-05T06:51:30.084Z,26.36
2022-08-05T06:54:04.086Z,26.42
2022-08-05T06:56:34.484Z,26.53
2022-08-05T06:59:08.473Z,26.60
2022-08-05T07:01:41.666Z,26.64
2022-08-05T07:04:10.511Z,26.70
2022-08-05T07:06:37.784Z,26.77
2022-08-05T07:09:05.981Z,26.93
2022-08-05T07:11:37.104Z,27.10
2022-08-05T07:14:29.972Z,27.27
2022-08-05T07:17:59.877Z,27.50
2022-08-05T07:22:42.018Z,27.78
2022-08-05T07:25:22.481Z,27.87
2022-08-05T07:27:58.853Z,28.03
2022-08-05T07:30:38.486Z,28.13
2022-08-05T07:33:10.562Z,28.14
2022-08-05T07:36:04.715Z,28.20
2022-08-05T07:38:34.803Z,28.30
2022-08-05T07:42:07.172Z,28.40
2022-08-05T07:43:56.177Z,28.51
2022-08-05T07:46:26.073Z,28.63
2022-08-05T07:49:02.503Z,28.78
2022-08-05T07:51:48.663Z,28.85
2022-08-05T07:54:26.237Z,28.97
2022-08-05T07:57:13.740Z,28.94
2022-08-05T07:59:42.198Z,28.96
2022-08-05T08:02:15.758Z,29.10
2022-08-05T08:04:46.227Z,29.08
2022-08-05T08:07:14.972Z,29.04
2022-08-05T08:09:43.776Z,29.07
2022-08-05T08:12:33.476Z,29.11
2022-08-05T08:15:02.627Z,29.12
2022-08-05T08:17:31.656Z,29.19
2022-08-05T08:20:23.479Z,29.26
2022-08-05T08:22:56.870Z,29.40
2022-08-05T08:25:26.800Z,29.53
2022-08-05T08:28:18.752Z,29.50
2022-08-05T08:31:00.739Z,29.60
2022-08-05T08:33:27.974Z,29.70
2022-08-05T08:36:18.407Z,29.83
2022-08-05T08:38:42.965Z,30.11
2022-08-05T08:41:26.128Z,30.16
2022-08-05T08:45:18.519Z,30.18
2022-08-05T08:47:21.726Z,30.14
2022-08-05T08:50:07.615Z,30.14
2022-08-05T08:52:47.359Z,30.23
2022-08-05T08:55:31.941Z,30.41
2022-08-05T08:58:09.293Z,30.64
2022-08-05T09:00:36.964Z,30.58
2022-08-05T09:03:08.130Z,30.72
2022-08-05T09:05:38.951Z,30.92
2022-08-05T09:08:27.289Z,31.20
2022-08-05T09:10:59.013Z,31.37
2022-08-05T09:13:31.512Z,31.54
2022-08-05T09:16:00.251Z,31.75
2022-08-05T09:18:28.225Z,31.95
2022-08-05T09:20:57.576Z,32.10
2022-08-05T09:23:28.805Z,32.21
2022-08-05T09:26:25.151Z,32.31
2022-08-05T09:29:05.206Z,32.29
2022-08-05T09:32:41.969Z,32.34
2022-08-05T09:34:21.032Z,32.47
2022-08-05T09:36:55.885Z,32.61
2022-08-05T09:39:41.518Z,32.75
2022-08-05T09:42:22.991Z,32.91
2022-08-05T09:44:56.461Z,33.00
2022-08-05T09:47:36.501Z,33.11
2022-08-05T09:50:37.427Z,33.18
2022-08-05T09:53:06.339Z,33.24
2022-08-05T09:55:56.451Z,33.34
2022-08-05T09:58:25.233Z,33.47
2022-08-05T10:01:01.984Z,33.53
2022-08-05T10:03:58.500Z,33.50
2022-08-05T10:06:28.384Z,33.47
2022-08-05T10:08:57.062Z,33.51
2022-08-05T10:11:24.375Z,33.53
2022-08-05T10:13:59.086Z,33.50
2022-08-05T10:16:41.712Z,33.57
2022-08-05T10:19:23.852Z,33.45
2022-08-05T10:21:59.747Z,33.60
2022-08-05T10:24:28.710Z,33.61
2022-08-05T10:27:00.185Z,33.79
2022-08-05T10:30:06.608Z,33.82
2022-08-05T10:32:52.647Z,33.80
2022-08-05T10:35:06.365Z,34.00
2022-08-05T10:37:37.229Z,34.23
2022-08-05T10:40:44.978Z,34.25
2022-08-05T10:43:35.861Z,34.34
2022-08-05T10:46:09.120Z,34.00
2022-08-05T10:48:58.063Z,33.97
2022-08-05T10:51:53.227Z,33.82
2022-08-05T10:54:56.679Z,33.79
2022-08-05T10:57:31.763Z,33.61
2022-08-05T11:00:20.452Z,33.77
2022-08-05T11:03:23.512Z,34.12
2022-08-05T11:06:15.974Z,34.44
2022-08-05T11:09:16.399Z,34.61
2022-08-05T11:11:52.382Z,34.89
2022-08-05T11:15:01.424Z,35.05
2022-08-05T11:17:57.369Z,34.75
2022-08-05T11:20:41.708Z,35.00
2022-08-05T11:23:33.444Z,35.02
2022-08-05T11:26:28.671Z,35.12
2022-08-05T11:29:11.917Z,35.34
2022-08-05T11:31:57.405Z,35.53
2022-08-05T11:34:51.168Z,35.98
2022-08-05T11:38:30.623Z,35.70
2022-08-05T11:41:34.503Z,36.07
2022-08-05T11:44:07.261Z,36.49
2022-08-05T11:46:58.569Z,36.92
2022-08-05T11:49:39.031Z,36.96
2022-08-05T11:52:11.338Z,37.25
2022-08-05T11:54:41.297Z,37.07
2022-08-05T11:57:39.397Z,36.86
2022-08-05T11:59:56.815Z,36.66
2022-08-05T12:02:31.264Z,36.74
2022-08-05T12:05:06.787Z,37.11
2022-08-05T12:08:08.585Z,36.89
2022-08-05T12:10:38.552Z,36.90
2022-08-05T12:13:28.330Z,37.01
2022-08-05T12:16:18.836Z,36.99
2022-08-05T12:18:49.524Z,37.38
2022-08-05T12:21:29.881Z,37.78
2022-08-05T12:24:07.086Z,38.03
2022-08-05T12:26:40.899Z,38.07
2022-08-05T12:29:22.519Z,38.19
2022-08-05T12:31:57.046Z,38.24
2022-08-05T12:34:37.163Z,38.22
2022-08-05T12:37:17.379Z,37.87
2022-08-05T12:39:51.784Z,37.91
2022-08-05T12:42:25.449Z,38.41
2022-08-05T12:44:52.817Z,39.07
2022-08-05T12:47:31.169Z,39.53
2022-08-05T12:50:03.835Z,39.60
2022-08-05T12:52:39.425Z,39.23
2022-08-05T12:55:22.903Z,39.45
2022-08-05T12:58:48.951Z,39.59
2022-08-05T13:02:00.627Z,39.93
2022-08-05T13:03:42.902Z,39.65
2022-08-05T13:06:16.184Z,39.55
2022-08-05T13:08:52.371Z,39.55
2022-08-05T13:12:01.829Z,39.62
2022-08-05T13:14:35.950Z,39.77
2022-08-05T13:17:10.027Z,40.08
2022-08-05T13:19:40.411Z,39.98
2022-08-05T13:22:28.437Z,39.89
2022-08-05T13:25:05.164Z,40.23
2022-08-05T13:27:39.063Z,40.09
2022-08-05T13:30:33.560Z,39.87
2022-08-05T13:33:01.244Z,39.89
2022-08-05T13:35:43.225Z,40.10
2022-08-05T13:38:28.328Z,40.40
2022-08-05T13:41:00.081Z,40.85
2022-08-05T13:43:44.496Z,41.25
2022-08-05T13:46:16.223Z,41.07
2022-08-05T13:48:58.155Z,40.92
2022-08-05T13:51:40.085Z,40.67
2022-08-05T13:54:12.247Z,40.62
2022-08-05T13:56:45.237Z,41.21
2022-08-05T13:59:23.990Z,41.81
2022-08-05T14:01:57.489Z,41.87
2022-08-05T14:04:51.433Z,41.40
2022-08-05T14:07:26.439Z,40.72
2022-08-05T14:10:18.750Z,40.68
2022-08-05T14:12:48.626Z,40.58
2022-08-05T14:16:05.045Z,40.60
2022-08-05T14:18:04.999Z,40.69
2022-08-05T14:20:32.263Z,40.90
2022-08-05T14:23:00.286Z,41.49
2022-08-05T14:25:30.238Z,41.33
2022-08-05T14:27:58.380Z,41.50
2022-08-05T14:30:26.437Z,41.41
2022-08-05T14:32:55.030Z,41.41
2022-08-05T14:35:24.010Z,41.08
2022-08-05T14:38:05.309Z,41.33
2022-08-05T14:40:32.271Z,41.47
2022-08-05T14:43:01.318Z,41.51
2022-08-05T14:45:28.660Z,41.18
2022-08-05T14:48:03.393Z,40.97
2022-08-05T14:50:38.902Z,40.83
2022-08-05T14:53:08.458Z,41.09
2022-08-05T14:55:39.437Z,41.01
2022-08-05T14:58:11.585Z,40.95
2022-08-05T15:00:58.262Z,40.97
2022-08-05T15:03:33.909Z,41.33
2022-08-05T15:06:15.432Z,41.21
2022-08-05T15:08:59.293Z,41.32
2022-08-05T15:11:53.121Z,41.31
2022-08-05T15:14:35.794Z,41.17
2022-08-05T15:17:44.678Z,41.20
2022-08-05T15:19:59.104Z,41.19
2022-08-05T15:22:26.962Z,41.51
2022-08-05T15:24:59.538Z,41.85
2022-08-05T15:27:32.269Z,41.43
2022-08-05T15:30:04.380Z,41.50
2022-08-05T15:32:31.920Z,41.84
2022-08-05T15:34:59.242Z,42.06
2022-08-05T15:38:08.474Z,41.91
2022-08-05T15:41:00.503Z,41.89
2022-08-05T15:43:12.526Z,41.91
2022-08-05T15:45:46.915Z,42.04
2022-08-05T15:48:15.689Z,41.90
2022-08-05T15:50:43.639Z,42.11
2022-08-05T15:53:14.417Z,42.12
2022-08-05T15:56:03.072Z,42.60
2022-08-05T15:58:35.443Z,42.62
2022-08-05T16:01:16.059Z,42.35
2022-08-05T16:03:50.497Z,42.42
2022-08-05T16:06:22.737Z,42.31
2022-08-05T16:08:53.613Z,42.04
2022-08-05T16:11:42.493Z,41.72
2022-08-05T16:14:16.945Z,41.82
2022-08-05T16:16:46.320Z,41.93
2022-08-05T16:19:25.278Z,41.31
2022-08-05T16:22:03.000Z,41.19
2022-08-05T16:24:39.879Z,41.45
2022-08-05T16:27:10.025Z,41.30
2022-08-05T16:29:50.291Z,41.06
2022-08-05T16:32:28.453Z,40.85
2022-08-05T16:34:58.847Z,40.83
2022-08-05T16:38:03.529Z,40.87
2022-08-05T16:40:28.869Z,40.85
2022-08-05T16:42:56.820Z,40.76
2022-08-05T16:46:05.101Z,40.74
2022-08-05T16:48:12.042Z,40.34
2022-08-05T16:50:54.594Z,40.56
2022-08-05T16:53:32.185Z,40.41
2022-08-05T16:56:00.170Z,40.65
2022-08-05T16:58:27.441Z,40.58
2022-08-05T17:00:55.445Z,40.75
2022-08-05T17:03:22.866Z,40.86
2022-08-05T17:05:54.265Z,40.65
2022-08-05T17:08:36.310Z,40.03
2022-08-05T17:11:17.037Z,40.12
2022-08-05T17:13:45.458Z,39.83
2022-08-05T17:16:33.532Z,39.61
2022-08-05T17:19:02.533Z,39.41
2022-08-05T17:21:35.497Z,38.87
2022-08-05T17:24:19.477Z,38.34
2022-08-05T17:26:58.825Z,37.95
2022-08-05T17:29:33.647Z,37.54
2022-08-05T17:32:11.502Z,36.74
2022-08-05T17:34:44.905Z,36.03
2022-08-05T17:37:39.587Z,35.33
2022-08-05T17:40:10.200Z,34.80
2022-08-05T17:42:41.731Z,34.40
2022-08-05T17:45:21.901Z,34.03
2022-08-05T17:47:55.806Z,33.54
2022-08-05T17:50:30.823Z,33.40
2022-08-05T17:53:00.549Z,32.81
2022-08-05T17:55:37.769Z,32.74
2022-08-05T17:58:12.585Z,32.45
2022-08-05T18:00:45.385Z,32.24
2022-08-05T18:03:56.343Z,31.96
2022-08-05T18:06:12.286Z,31.62
2022-08-05T18:08:46.043Z,31.29
2022-08-05T18:11:24.516Z,31.17
2022-08-05T18:14:03.181Z,31.02
2022-08-05T18:16:33.300Z,30.85
2022-08-05T18:19:00.273Z,30.70
2022-08-05T18:22:06.978Z,30.58
2022-08-05T18:24:15.891Z,30.46
2022-08-05T18:26:43.895Z,30.42
2022-08-05T18:29:11.955Z,30.29
2022-08-05T18:31:45.284Z,30.26
2022-08-05T18:34:13.387Z,30.18
2022-08-05T18:36:43.682Z,30.11
2022-08-05T18:39:42.205Z,30.03
2022-08-05T18:42:04.896Z,29.86
2022-08-05T18:44:48.906Z,29.71
2022-08-05T18:47:22.764Z,29.55
2022-08-05T18:50:15.513Z,29.44
2022-08-05T18:52:50.922Z,29.33
2022-08-05T18:55:22.301Z,29.25
2022-08-05T18:57:53.401Z,29.17
2022-08-05T19:00:29.058Z,29.13
2022-08-05T19:03:03.927Z,29.03
2022-08-05T19:06:11.915Z,29.00
2022-08-05T19:08:22.099Z,28.90
2022-08-05T19:11:04.428Z,28.76
2022-08-05T19:13:35.894Z,28.68
2022-08-05T19:16:25.085Z,28.61
2022-08-05T19:18:56.692Z,28.43
2022-08-05T19:21:25.337Z,28.30
2022-08-05T19:24:05.996Z,28.19
2022-08-05T19:26:36.835Z,28.16
2022-08-05T19:29:21.658Z,28.10
2022-08-05T19:31:51.339Z,28.10
2022-08-05T19:34:18.888Z,28.06
2022-08-05T19:36:45.867Z,28.08
2022-08-05T19:39:17.176Z,28.09
2022-08-05T19:42:07.709Z,28.03
2022-08-05T19:44:35.269Z,27.97
2022-08-05T19:47:04.921Z,27.90
2022-08-05T19:49:37.548Z,27.88
2022-08-05T19:52:30.907Z,27.76
2022-08-05T19:54:52.855Z,27.65
2022-08-05T19:57:20.055Z,27.57
2022-08-05T20:00:08.113Z,27.47
2022-08-05T20:02:39.905Z,27.43
2022-08-05T20:05:09.477Z,27.38
2022-08-05T20:07:45.687Z,27.35
2022-08-05T20:10:19.410Z,27.26
2022-08-05T20:12:49.952Z,27.24
2022-08-05T20:15:23.231Z,27.23
2022-08-05T20:18:32.651Z,27.12
2022-08-05T20:20:57.812Z,27.06
2022-08-05T20:23:40.079Z,27.11
2022-08-05T20:26:17.699Z,27.07
2022-08-05T20:28:50.881Z,27.03
2022-08-05T20:31:21.753Z,26.88
2022-08-05T20:33:51.373Z,26.78
2022-08-05T20:36:21.136Z,26.66
2022-08-05T20:38:54.282Z,26.60
2022-08-05T20:41:44.472Z,26.47
2022-08-05T20:44:29.373Z,26.15
2022-08-05T20:47:03.198Z,26.13
2022-08-05T20:49:37.844Z,26.01
2022-08-05T20:52:08.055Z,26.00
2022-08-05T20:54:43.260Z,25.95
2022-08-05T20:57:42.243Z,25.89
2022-08-05T21:00:20.869Z,25.85
2022-08-05T21:03:07.093Z,25.80
2022-08-05T21:05:53.734Z,25.80
2022-08-05T21:08:26.850Z,25.77
2022-08-05T21:11:01.363Z,25.75
2022-08-05T21:13:48.485Z,25.76
2022-08-05T21:16:29.543Z,25.67
2022-08-05T21:19:00.110Z,25.61
2022-08-05T21:21:39.670Z,25.58
2022-08-05T21:24:12.856Z,25.54
2022-08-05T21:26:42.736Z,25.50
2022-08-05T21:29:16.687Z,25.46
2022-08-05T21:31:45.122Z,25.46
2022-08-05T21:34:12.105Z,25.47
2022-08-05T21:36:39.789Z,25.44
2022-08-05T21:39:14.268Z,25.39
2022-08-05T21:41:52.706Z,25.37
2022-08-05T21:44:32.463Z,25.31
2022-08-05T21:47:00.367Z,25.27
2022-08-05T21:49:48.509Z,25.27
2022-08-05T21:52:27.662Z,25.23
2022-08-05T21:55:06.410Z,25.21
2022-08-05T21:57:42.763Z,25.19
2022-08-05T22:00:11.851Z,25.23
2022-08-05T22:02:42.967Z,25.17
2022-08-05T22:05:12.200Z,25.17
2022-08-05T22:07:59.442Z,25.10
2022-08-05T22:10:28.396Z,25.07
2022-08-05T22:12:59.190Z,25.05
2022-08-05T22:16:02.070Z,25.01
2022-08-05T22:18:25.954Z,24.98
2022-08-05T22:20:54.310Z,24.98
2022-08-05T22:24:00.968Z,24.84
2022-08-05T22:26:50.499Z,24.74
2022-08-05T22:29:26.794Z,24.72
2022-08-05T22:32:03.180Z,24.66
2022-08-05T22:34:33.412Z,24.64
2022-08-05T22:37:03.953Z,24.59
2022-08-05T22:39:34.967Z,24.58
2022-08-05T22:42:11.631Z,24.56
2022-08-05T22:44:48.674Z,24.56
2022-08-05T22:47:29.199Z,24.57
2022-08-05T22:50:20.932Z,24.58
2022-08-05T22:52:51.427Z,24.51
2022-08-05T22:55:21.289Z,24.46
2022-08-05T22:57:53.813Z,24.45
2022-08-05T23:00:24.215Z,24.39
2022-08-05T23:02:53.955Z,24.36
2022-08-05T23:05:22.476Z,24.31
2022-08-05T23:07:51.735Z,24.30
2022-08-05T23:10:23.966Z,24.28
2022-08-05T23:12:55.128Z,24.23
2022-08-05T23:15:29.637Z,24.21
2022-08-05T23:18:03.236Z,24.20
2022-08-05T23:20:32.748Z,24.21
2022-08-05T23:23:05.730Z,24.17
2022-08-05T23:25:53.688Z,24.16
2022-08-05T23:28:29.395Z,24.14
2022-08-05T23:31:15.807Z,24.18
2022-08-05T23:34:06.036Z,24.14
2022-08-05T23:36:40.054Z,24.15
2022-08-05T23:39:32.214Z,24.17
2022-08-05T23:42:08.598Z,24.17
2022-08-05T23:44:42.621Z,24.16
2022-08-05T23:47:15.620Z,24.11
2022-08-05T23:49:45.820Z,24.08
2022-08-05T23:52:35.957Z,24.09
2022-08-05T23:55:17.121Z,24.04
2022-08-05T23:57:44.440Z,24.01
